createdAt,value
2019-01-14T00:00:02.574Z,5.06
2019-01-14T00:01:02.730Z,5.02
2019-01-14T00:02:02.524Z,5.02
2019-01-14T00:03:02.715Z,5.07
2019-01-14T00:04:02.419Z,5.08
2019-01-14T00:05:02.411Z,5.06
2019-01-14T00:06:02.438Z,5.06
2019-01-14T00:07:02.563Z,5.04
2019-01-14T00:08:02.673Z,5.03
2019-01-14T00:09:02.443Z,5.03
2019-01-14T00:10:02.550Z,4.97
2019-01-14T00:11:02.559Z,4.89
2019-01-14T00:12:02.459Z,4.9
2019-01-14T00:13:02.399Z,4.9
2019-01-14T00:14:02.590Z,4.92
2019-01-14T00:15:02.893Z,4.94
2019-01-14T00:16:02.780Z,4.77
2019-01-14T00:17:02.473Z,4.89
2019-01-14T00:18:02.478Z,4.83
2019-01-14T00:19:02.466Z,4.86
2019-01-14T00:20:02.542Z,4.87
2019-01-14T00:21:02.397Z,4.88
2019-01-14T00:22:02.498Z,4.92
2019-01-14T00:23:02.387Z,4.92
2019-01-14T00:24:02.759Z,4.89
2019-01-14T00:25:02.510Z,4.91
2019-01-14T00:26:02.460Z,4.97
2019-01-14T00:27:02.408Z,4.9
2019-01-14T00:28:02.402Z,4.89
2019-01-14T00:29:02.380Z,4.9
2019-01-14T00:30:02.560Z,4.96
2019-01-14T00:31:02.345Z,4.96
2019-01-14T00:32:02.623Z,4.92
2019-01-14T00:33:02.559Z,4.83
2019-01-14T00:34:02.418Z,4.73
2019-01-14T00:35:02.371Z,4.63
2019-01-14T00:36:02.455Z,4.62
2019-01-14T00:37:02.514Z,4.64
2019-01-14T00:38:02.396Z,4.65
2019-01-14T00:39:02.554Z,4.61
2019-01-14T00:40:02.633Z,4.54
2019-01-14T00:41:02.397Z,4.56
2019-01-14T00:42:02.373Z,4.6
2019-01-14T00:43:02.396Z,4.6
2019-01-14T00:44:02.354Z,4.56
2019-01-14T00:45:02.337Z,4.55
2019-01-14T00:46:02.626Z,4.52
2019-01-14T00:47:02.626Z,4.51
2019-01-14T00:48:02.635Z,4.53
2019-01-14T00:49:02.498Z,4.51
2019-01-14T00:50:02.723Z,4.53
2019-01-14T00:51:02.594Z,4.56
2019-01-14T00:52:02.407Z,4.51
2019-01-14T00:53:02.776Z,4.52
2019-01-14T00:54:02.438Z,4.53
2019-01-14T00:55:02.333Z,4.53
2019-01-14T00:56:02.672Z,4.56
2019-01-14T00:57:02.696Z,4.57
2019-01-14T00:58:02.920Z,4.59
2019-01-14T00:59:02.318Z,4.58
2019-01-14T01:00:02.447Z,4.59
2019-01-14T01:01:02.296Z,4.5
2019-01-14T01:02:02.560Z,4.5
2019-01-14T01:03:02.362Z,4.51
2019-01-14T01:04:03.176Z,4.46
2019-01-14T01:05:02.465Z,4.51
2019-01-14T01:06:02.332Z,4.42
2019-01-14T01:07:02.441Z,4.42
2019-01-14T01:08:02.463Z,4.45
2019-01-14T01:09:02.735Z,4.47
2019-01-14T01:10:02.408Z,4.53
2019-01-14T01:11:02.300Z,4.43
2019-01-14T01:12:02.296Z,4.4
2019-01-14T01:13:04.082Z,4.44
2019-01-14T01:14:02.499Z,4.41
2019-01-14T01:15:04.153Z,4.35
2019-01-14T01:16:02.270Z,4.35
2019-01-14T01:17:03.483Z,4.34
2019-01-14T01:18:02.522Z,4.33
2019-01-14T01:19:02.674Z,4.31
2019-01-14T01:20:03.162Z,4.29
2019-01-14T01:21:02.440Z,4.23
2019-01-14T01:22:02.320Z,4.19
2019-01-14T01:23:02.308Z,4.23
2019-01-14T01:24:03.200Z,4.14
2019-01-14T01:25:02.464Z,4.15
2019-01-14T01:26:02.308Z,4.18
2019-01-14T01:27:02.725Z,4.15
2019-01-14T01:28:02.545Z,4.15
2019-01-14T01:29:02.730Z,4.13
2019-01-14T01:30:02.374Z,4.16
2019-01-14T01:31:04.069Z,4.16
2019-01-14T01:32:02.572Z,4.15
2019-01-14T01:33:03.124Z,4.18
2019-01-14T01:34:04.096Z,4.2
2019-01-14T01:35:02.388Z,4.1
2019-01-14T01:36:04.063Z,4.08
2019-01-14T01:37:02.488Z,4.02
2019-01-14T01:38:02.318Z,4.05
2019-01-14T01:39:02.543Z,3.97
2019-01-14T01:40:03.095Z,4.04
2019-01-14T01:41:02.489Z,3.99
2019-01-14T01:42:02.391Z,4.02
2019-01-14T01:43:02.291Z,4
2019-01-14T01:44:02.370Z,4.03
2019-01-14T01:45:02.368Z,3.97
2019-01-14T01:46:02.429Z,4.01
2019-01-14T01:47:02.529Z,3.93
2019-01-14T01:48:02.464Z,3.93
2019-01-14T01:49:02.360Z,3.93
2019-01-14T01:50:03.104Z,3.91
2019-01-14T01:51:02.312Z,3.82
2019-01-14T01:52:02.399Z,3.88
2019-01-14T01:53:02.262Z,3.81
2019-01-14T01:54:02.581Z,3.85
2019-01-14T01:55:02.603Z,3.81
2019-01-14T01:56:02.460Z,3.81
2019-01-14T01:57:02.472Z,3.79
2019-01-14T01:58:02.615Z,3.72
2019-01-14T01:59:02.286Z,3.75
2019-01-14T02:00:02.539Z,3.78
2019-01-14T02:01:02.420Z,3.73
2019-01-14T02:02:02.594Z,3.67
2019-01-14T02:03:02.480Z,3.72
2019-01-14T02:04:02.281Z,3.67
2019-01-14T02:05:02.348Z,3.67
2019-01-14T02:06:02.259Z,3.69
2019-01-14T02:07:02.622Z,3.63
2019-01-14T02:08:02.348Z,3.66
2019-01-14T02:09:02.310Z,3.6
2019-01-14T02:10:02.463Z,3.64
2019-01-14T02:11:02.186Z,3.61
2019-01-14T02:12:02.966Z,3.63
2019-01-14T02:13:02.172Z,3.56
2019-01-14T02:14:02.318Z,3.61
2019-01-14T02:15:02.181Z,3.55
2019-01-14T02:16:02.348Z,3.51
2019-01-14T02:17:02.213Z,3.54
2019-01-14T02:18:02.294Z,3.56
2019-01-14T02:19:02.658Z,3.55
2019-01-14T02:20:02.249Z,3.56
2019-01-14T02:21:02.216Z,3.5
2019-01-14T02:22:02.202Z,3.5
2019-01-14T02:23:02.255Z,3.51
2019-01-14T02:24:02.246Z,3.55
2019-01-14T02:25:02.320Z,3.51
2019-01-14T02:26:02.213Z,3.47
2019-01-14T02:27:02.485Z,3.49
2019-01-14T02:28:02.700Z,3.53
2019-01-14T02:29:02.272Z,3.55
2019-01-14T02:30:02.893Z,3.47
2019-01-14T02:31:02.217Z,3.53
2019-01-14T02:32:02.534Z,3.51
2019-01-14T02:33:02.540Z,3.49
2019-01-14T02:34:02.312Z,3.48
2019-01-14T02:35:02.188Z,3.5
2019-01-14T02:36:02.652Z,3.53
2019-01-14T02:37:02.228Z,3.47
2019-01-14T02:38:02.391Z,3.52
2019-01-14T02:39:02.510Z,3.49
2019-01-14T02:40:02.238Z,3.46
2019-01-14T02:41:02.504Z,3.48
2019-01-14T02:42:02.173Z,3.5
2019-01-14T02:43:02.279Z,3.48
2019-01-14T02:44:02.241Z,3.43
2019-01-14T02:45:02.301Z,3.52
2019-01-14T02:46:02.718Z,3.53
2019-01-14T02:47:02.180Z,3.47
2019-01-14T02:48:02.193Z,3.55
2019-01-14T02:49:02.234Z,3.48
2019-01-14T02:50:02.372Z,3.51
2019-01-14T02:51:02.173Z,3.47
2019-01-14T02:52:02.193Z,3.44
2019-01-14T02:53:02.253Z,3.46
2019-01-14T02:54:02.370Z,3.46
2019-01-14T02:55:02.507Z,3.45
2019-01-14T02:56:02.500Z,3.42
2019-01-14T02:57:02.538Z,3.43
2019-01-14T02:58:02.254Z,3.39
2019-01-14T02:59:02.562Z,3.36
2019-01-14T03:00:02.691Z,3.35
2019-01-14T03:01:02.222Z,3.35
2019-01-14T03:02:02.289Z,3.36
2019-01-14T03:03:02.210Z,3.33
2019-01-14T03:04:02.329Z,3.36
2019-01-14T03:05:02.408Z,3.33
2019-01-14T03:06:02.546Z,3.32
2019-01-14T03:07:02.904Z,3.29
2019-01-14T03:08:03.049Z,3.28
2019-01-14T03:09:02.244Z,3.28
2019-01-14T03:10:02.408Z,3.24
2019-01-14T03:11:02.256Z,3.26
2019-01-14T03:12:02.149Z,3.32
2019-01-14T03:13:02.517Z,3.25
2019-01-14T03:14:02.207Z,3.26
2019-01-14T03:15:02.449Z,3.24
2019-01-14T03:16:03.934Z,3.27
2019-01-14T03:17:02.401Z,3.25
2019-01-14T03:18:02.143Z,3.23
2019-01-14T03:19:02.128Z,3.22
2019-01-14T03:20:03.184Z,3.21
2019-01-14T03:21:02.325Z,3.12
2019-01-14T03:22:02.371Z,3.13
2019-01-14T03:23:02.565Z,3.16
2019-01-14T03:24:02.176Z,3.1
2019-01-14T03:25:02.210Z,3.12
2019-01-14T03:26:02.212Z,3.09
2019-01-14T03:27:02.180Z,3.01
2019-01-14T03:28:02.190Z,3.02
2019-01-14T03:29:02.087Z,3.04
2019-01-14T03:30:02.206Z,3.05
2019-01-14T03:31:02.956Z,3.02
2019-01-14T03:32:02.958Z,3
2019-01-14T03:33:02.313Z,2.98
2019-01-14T03:34:02.654Z,2.95
2019-01-14T03:35:02.261Z,3
2019-01-14T03:36:02.940Z,2.92
2019-01-14T03:37:06.017Z,2.98
2019-01-14T03:38:02.258Z,2.98
2019-01-14T03:39:02.278Z,2.99
2019-01-14T03:40:02.414Z,2.92
2019-01-14T03:41:02.062Z,2.97
2019-01-14T03:42:02.089Z,2.93
2019-01-14T03:43:02.451Z,2.97
2019-01-14T03:44:02.134Z,2.94
2019-01-14T03:45:02.389Z,2.95
2019-01-14T03:46:03.920Z,2.97
2019-01-14T03:47:02.132Z,2.9
2019-01-14T03:48:02.339Z,2.96
2019-01-14T03:49:02.251Z,3
2019-01-14T03:50:02.356Z,3
2019-01-14T03:51:02.198Z,3.04
2019-01-14T03:52:02.784Z,3.04
2019-01-14T03:53:02.567Z,3.09
2019-01-14T03:54:02.134Z,3.08
2019-01-14T03:55:02.390Z,2.99
2019-01-14T03:56:02.399Z,2.95
2019-01-14T03:57:02.140Z,2.98
2019-01-14T03:58:02.303Z,3
2019-01-14T03:59:02.454Z,3.05
2019-01-14T04:00:02.189Z,3.14
2019-01-14T04:01:02.096Z,3.16
2019-01-14T04:02:02.335Z,3.13
2019-01-14T04:03:02.235Z,3.15
2019-01-14T04:04:02.097Z,3.12
2019-01-14T04:05:02.267Z,3.12
2019-01-14T04:06:02.087Z,3.18
2019-01-14T04:07:02.115Z,3.18
2019-01-14T04:08:02.287Z,3.18
2019-01-14T04:09:02.076Z,3.19
2019-01-14T04:10:02.316Z,3.23
2019-01-14T04:11:02.669Z,3.22
2019-01-14T04:12:02.109Z,3.25
2019-01-14T04:13:02.111Z,3.25
2019-01-14T04:14:02.720Z,3.23
2019-01-14T04:15:02.417Z,3.24
2019-01-14T04:16:02.169Z,3.07
2019-01-14T04:17:02.177Z,3.21
2019-01-14T04:18:02.034Z,3.19
2019-01-14T04:19:02.167Z,3.2
2019-01-14T04:20:02.535Z,3.22
2019-01-14T04:21:02.061Z,3.21
2019-01-14T04:22:02.275Z,3.23
2019-01-14T04:23:02.046Z,3.25
2019-01-14T04:24:02.080Z,3.3
2019-01-14T04:25:02.117Z,3.29
2019-01-14T04:26:02.649Z,3.28
2019-01-14T04:27:02.319Z,3.28
2019-01-14T04:28:02.198Z,3.31
2019-01-14T04:29:02.411Z,3.31
2019-01-14T04:30:02.126Z,3.34
2019-01-14T04:31:02.128Z,3.33
2019-01-14T04:32:02.346Z,3.36
2019-01-14T04:33:02.300Z,3.37
2019-01-14T04:34:02.371Z,3.36
2019-01-14T04:35:02.277Z,3.38
2019-01-14T04:36:03.793Z,3.27
2019-01-14T04:37:02.420Z,3.27
2019-01-14T04:38:02.399Z,3.34
2019-01-14T04:39:02.353Z,3.32
2019-01-14T04:40:02.291Z,3.36
2019-01-14T04:41:02.133Z,3.34
2019-01-14T04:42:02.304Z,3.38
2019-01-14T04:43:02.203Z,3.38
2019-01-14T04:44:02.020Z,3.33
2019-01-14T04:45:02.320Z,3.29
2019-01-14T04:46:02.177Z,3.32
2019-01-14T04:47:02.150Z,3.36
2019-01-14T04:48:02.480Z,3.39
2019-01-14T04:49:02.215Z,3.35
2019-01-14T04:50:02.268Z,3.37
2019-01-14T04:51:02.875Z,3.35
2019-01-14T04:52:02.045Z,3.35
2019-01-14T04:53:02.278Z,3.37
2019-01-14T04:54:02.174Z,3.33
2019-01-14T04:55:02.016Z,3.32
2019-01-14T04:56:02.490Z,3.3
2019-01-14T04:57:02.252Z,3.33
2019-01-14T04:58:02.348Z,3.36
2019-01-14T04:59:02.035Z,3.4
2019-01-14T05:00:02.329Z,3.43
2019-01-14T05:01:02.062Z,3.4
2019-01-14T05:02:01.986Z,3.35
2019-01-14T05:03:02.105Z,3.33
2019-01-14T05:04:02.351Z,3.34
2019-01-14T05:05:02.391Z,3.33
2019-01-14T05:06:02.092Z,3.35
2019-01-14T05:07:02.063Z,3.26
2019-01-14T05:08:02.236Z,3.27
2019-01-14T05:09:01.982Z,3.31
2019-01-14T05:10:02.453Z,3.29
2019-01-14T05:11:01.949Z,3.3
2019-01-14T05:12:01.938Z,3.32
2019-01-14T05:13:02.406Z,3.32
2019-01-14T05:14:02.239Z,3.28
2019-01-14T05:15:02.350Z,3.29
2019-01-14T05:16:02.065Z,3.28
2019-01-14T05:17:02.343Z,3.27
2019-01-14T05:18:01.981Z,3.22
2019-01-14T05:19:02.237Z,3.22
2019-01-14T05:20:03.841Z,3.3
2019-01-14T05:21:02.605Z,3.25
2019-01-14T05:22:02.049Z,3.25
2019-01-14T05:23:02.031Z,3.24
2019-01-14T05:24:02.025Z,3.25
2019-01-14T05:25:02.069Z,3.27
2019-01-14T05:26:02.055Z,3.21
2019-01-14T05:27:02.133Z,3.22
2019-01-14T05:28:02.134Z,3.28
2019-01-14T05:29:02.350Z,3.2
2019-01-14T05:30:02.221Z,3.29
2019-01-14T05:31:02.228Z,3.2
2019-01-14T05:32:02.043Z,3.22
2019-01-14T05:33:02.139Z,3.2
2019-01-14T05:34:01.930Z,3.18
2019-01-14T05:35:02.351Z,3.2
2019-01-14T05:36:02.323Z,3.18
2019-01-14T05:37:02.281Z,3.07
2019-01-14T05:38:02.380Z,3.08
2019-01-14T05:39:02.610Z,3.09
2019-01-14T05:40:02.174Z,3.1
2019-01-14T05:41:02.811Z,3.06
2019-01-14T05:42:02.106Z,3.1
2019-01-14T05:43:02.228Z,3.07
2019-01-14T05:44:02.006Z,3.09
2019-01-14T05:45:01.919Z,3.11
2019-01-14T05:46:01.997Z,3.15
2019-01-14T05:47:01.995Z,3.16
2019-01-14T05:48:02.183Z,3.09
2019-01-14T05:49:02.214Z,3.15
2019-01-14T05:50:02.283Z,3.16
2019-01-14T05:51:02.074Z,3.15
2019-01-14T05:52:02.270Z,3.13
2019-01-14T05:53:02.305Z,3.2
2019-01-14T05:54:02.254Z,3.16
2019-01-14T05:55:03.126Z,3.21
2019-01-14T05:56:01.963Z,3.17
2019-01-14T05:57:02.308Z,3.2
2019-01-14T05:58:02.093Z,3.19
2019-01-14T05:59:02.322Z,3.19
2019-01-14T06:00:02.234Z,3.21
2019-01-14T06:01:02.180Z,3.17
2019-01-14T06:02:01.911Z,3.16
2019-01-14T06:03:02.010Z,3.2
2019-01-14T06:04:02.183Z,3.18
2019-01-14T06:05:03.224Z,3.17
2019-01-14T06:06:01.891Z,3.23
2019-01-14T06:07:02.203Z,3.25
2019-01-14T06:08:02.211Z,3.21
2019-01-14T06:09:02.196Z,3.14
2019-01-14T06:10:02.021Z,3.2
2019-01-14T06:11:02.404Z,3.16
2019-01-14T06:12:02.147Z,3.17
2019-01-14T06:13:01.859Z,3.2
2019-01-14T06:14:01.867Z,3.25
2019-01-14T06:15:01.944Z,3.24
2019-01-14T06:16:02.365Z,3.19
2019-01-14T06:17:01.825Z,3.2
2019-01-14T06:18:02.227Z,3.24
2019-01-14T06:19:02.179Z,3.23
2019-01-14T06:20:02.020Z,3.28
2019-01-14T06:21:02.081Z,3.19
2019-01-14T06:22:02.276Z,3.18
2019-01-14T06:23:01.898Z,3.15
2019-01-14T06:24:02.313Z,3.21
2019-01-14T06:25:01.797Z,3.14
2019-01-14T06:26:02.326Z,3.17
2019-01-14T06:27:01.881Z,3.14
2019-01-14T06:28:01.915Z,3.15
2019-01-14T06:29:02.075Z,3.16
2019-01-14T06:30:01.853Z,3.16
2019-01-14T06:31:01.865Z,3.14
2019-01-14T06:32:01.841Z,3.12
2019-01-14T06:33:03.269Z,3.11
2019-01-14T06:34:02.714Z,3.15
2019-01-14T06:35:02.162Z,3.14
2019-01-14T06:36:02.177Z,3.17
2019-01-14T06:37:02.114Z,3.21
2019-01-14T06:38:01.779Z,3.11
2019-01-14T06:39:02.521Z,3.12
2019-01-14T06:40:02.920Z,3.14
2019-01-14T06:41:01.861Z,3.14
2019-01-14T06:42:02.268Z,3.12
2019-01-14T06:43:02.137Z,3.16
2019-01-14T06:44:02.156Z,3.16
2019-01-14T06:45:02.052Z,3.09
2019-01-14T06:46:02.042Z,3.08
2019-01-14T06:47:02.048Z,3.13
2019-01-14T06:48:02.070Z,3.12
2019-01-14T06:49:01.879Z,3.05
2019-01-14T06:50:02.130Z,3.05
2019-01-14T06:51:02.249Z,3.04
2019-01-14T06:52:03.206Z,3.07
2019-01-14T06:53:02.031Z,2.95
2019-01-14T06:54:02.060Z,2.98
2019-01-14T06:55:02.692Z,2.99
2019-01-14T06:56:01.857Z,3
2019-01-14T06:57:02.109Z,3.02
2019-01-14T06:59:02.016Z,2.93
2019-01-14T07:00:02.142Z,2.94
2019-01-14T07:01:01.812Z,2.95
2019-01-14T07:02:01.784Z,2.97
2019-01-14T07:03:02.284Z,2.95
2019-01-14T07:04:01.861Z,2.98
2019-01-14T07:05:02.068Z,2.93
2019-01-14T07:06:02.202Z,2.99
2019-01-14T07:07:02.307Z,3.02
2019-01-14T07:08:02.199Z,2.91
2019-01-14T07:09:01.864Z,2.92
2019-01-14T07:10:01.929Z,2.94
2019-01-14T07:11:02.303Z,2.98
2019-01-14T07:12:01.804Z,2.98
2019-01-14T07:13:02.004Z,2.92
2019-01-14T07:14:02.140Z,2.97
2019-01-14T07:15:02.414Z,2.93
2019-01-14T07:16:01.859Z,2.92
2019-01-14T07:17:01.852Z,2.95
2019-01-14T07:18:01.867Z,2.95
2019-01-14T07:19:02.103Z,2.88
2019-01-14T07:20:01.852Z,2.91
2019-01-14T07:21:01.857Z,2.89
2019-01-14T07:22:02.106Z,2.87
2019-01-14T07:23:01.788Z,2.93
2019-01-14T07:24:01.751Z,2.97
2019-01-14T07:25:02.072Z,2.97
2019-01-14T07:26:02.121Z,2.9
2019-01-14T07:27:01.752Z,2.92
2019-01-14T07:28:01.826Z,2.86
2019-01-14T07:29:02.133Z,2.95
2019-01-14T07:30:02.347Z,2.88
2019-01-14T07:31:01.754Z,2.88
2019-01-14T07:32:01.793Z,2.93
2019-01-14T07:33:01.821Z,2.91
2019-01-14T07:34:01.866Z,2.94
2019-01-14T07:35:02.599Z,2.92
2019-01-14T07:36:01.811Z,2.91
2019-01-14T07:37:01.782Z,2.95
2019-01-14T07:38:07.388Z,2.96
2019-01-14T07:39:02.208Z,2.98
2019-01-14T07:40:01.853Z,2.95
2019-01-14T07:41:02.418Z,2.87
2019-01-14T07:42:01.695Z,2.96
2019-01-14T07:43:02.153Z,2.9
2019-01-14T07:44:01.708Z,2.94
2019-01-14T07:45:01.727Z,2.96
2019-01-14T07:46:01.946Z,2.99
2019-01-14T07:47:01.741Z,2.96
2019-01-14T07:48:01.735Z,2.9
2019-01-14T07:49:01.722Z,2.96
2019-01-14T07:50:01.923Z,2.94
2019-01-14T07:51:01.851Z,2.95
2019-01-14T07:52:01.925Z,2.92
2019-01-14T07:53:02.175Z,2.97
2019-01-14T07:54:01.904Z,2.99
2019-01-14T07:55:02.004Z,2.99
2019-01-14T07:56:02.026Z,3
2019-01-14T07:57:02.060Z,3.01
2019-01-14T07:58:02.133Z,3.01
2019-01-14T07:59:02.137Z,3.02
2019-01-14T08:00:02.111Z,3
2019-01-14T08:01:01.755Z,2.99
2019-01-14T08:02:02.178Z,3
2019-01-14T08:03:01.873Z,3.03
2019-01-14T08:04:02.156Z,3
2019-01-14T08:05:01.868Z,3.04
2019-01-14T08:06:01.740Z,3.04
2019-01-14T08:07:02.353Z,2.99
2019-01-14T08:08:01.923Z,3.01
2019-01-14T08:09:01.986Z,2.97
2019-01-14T08:10:01.888Z,3
2019-01-14T08:11:02.109Z,3.01
2019-01-14T08:12:02.301Z,3
2019-01-14T08:13:01.722Z,3
2019-01-14T08:14:01.698Z,3.04
2019-01-14T08:15:01.837Z,3.08
2019-01-14T08:16:01.469Z,3.08
2019-01-14T08:17:01.941Z,3.06
2019-01-14T08:18:02.645Z,3.09
2019-01-14T08:19:01.790Z,3.15
2019-01-14T08:20:01.712Z,3.11
2019-01-14T08:21:01.819Z,3.22
2019-01-14T08:22:01.751Z,3.19
2019-01-14T08:23:01.730Z,3.23
2019-01-14T08:24:01.654Z,3.31
2019-01-14T08:25:02.517Z,3.37
2019-01-14T08:26:01.874Z,3.36
2019-01-14T08:27:02.101Z,3.36
2019-01-14T08:28:02.109Z,3.34
2019-01-14T08:29:01.657Z,3.37
2019-01-14T08:30:01.749Z,3.34
2019-01-14T08:31:03.593Z,3.37
2019-01-14T08:32:02.209Z,3.32
2019-01-14T08:33:01.957Z,3.37
2019-01-14T08:34:02.042Z,3.41
2019-01-14T08:35:02.009Z,3.45
2019-01-14T08:36:01.700Z,3.43
2019-01-14T08:37:01.728Z,3.46
2019-01-14T08:38:01.694Z,3.48
2019-01-14T08:39:01.882Z,3.51
2019-01-14T08:40:02.227Z,3.46
2019-01-14T08:41:01.687Z,3.42
2019-01-14T08:42:01.802Z,3.45
2019-01-14T08:43:01.876Z,3.37
2019-01-14T08:44:01.684Z,3.44
2019-01-14T08:45:02.045Z,3.42
2019-01-14T08:46:01.799Z,3.4
2019-01-14T08:47:01.737Z,3.4
2019-01-14T08:48:01.644Z,3.46
2019-01-14T08:49:01.841Z,3.48
2019-01-14T08:50:01.932Z,3.41
2019-01-14T08:51:01.982Z,3.43
2019-01-14T08:52:01.735Z,3.39
2019-01-14T08:53:02.309Z,3.37
2019-01-14T08:54:02.111Z,3.37
2019-01-14T08:55:01.916Z,3.36
2019-01-14T08:56:01.656Z,3.41
2019-01-14T08:57:01.770Z,3.36
2019-01-14T08:58:01.874Z,3.35
2019-01-14T08:59:01.777Z,3.32
2019-01-14T09:00:01.967Z,3.39
2019-01-14T09:01:02.287Z,3.36
2019-01-14T09:02:01.705Z,3.37
2019-01-14T09:03:01.872Z,3.41
2019-01-14T09:04:02.108Z,3.46
2019-01-14T09:05:02.606Z,3.49
2019-01-14T09:06:03.506Z,3.46
2019-01-14T09:07:01.916Z,3.51
2019-01-14T09:08:01.746Z,3.58
2019-01-14T09:09:01.702Z,3.47
2019-01-14T09:10:02.047Z,3.5
2019-01-14T09:11:02.196Z,3.53
2019-01-14T09:12:01.856Z,3.53
2019-01-14T09:13:01.603Z,3.6
2019-01-14T09:15:01.638Z,3.58
2019-01-14T09:16:01.770Z,3.61
2019-01-14T09:17:03.896Z,3.63
2019-01-14T09:18:03.321Z,3.55
2019-01-14T09:19:01.789Z,3.58
2019-01-14T09:20:01.528Z,3.57
2019-01-14T09:21:02.298Z,3.64
2019-01-14T09:22:01.562Z,3.62
2019-01-14T09:23:01.938Z,3.61
2019-01-14T09:24:02.137Z,3.64
2019-01-14T09:25:18.156Z,3.66
2019-01-14T09:26:01.695Z,3.67
2019-01-14T09:27:01.616Z,3.66
2019-01-14T09:28:01.884Z,3.68
2019-01-14T09:29:01.612Z,3.72
2019-01-14T09:30:01.304Z,3.68
2019-01-14T09:31:18.270Z,3.64
2019-01-14T09:32:02.421Z,3.67
2019-01-14T09:33:01.648Z,3.71
2019-01-14T09:34:01.661Z,3.68
2019-01-14T09:35:01.565Z,3.66
2019-01-14T09:36:01.571Z,3.77
2019-01-14T09:37:01.691Z,3.68
2019-01-14T09:38:01.777Z,3.71
2019-01-14T09:39:01.634Z,3.75
2019-01-14T09:40:01.614Z,3.75
2019-01-14T09:41:01.570Z,3.78
2019-01-14T09:42:03.403Z,3.58
2019-01-14T09:43:01.966Z,3.56
2019-01-14T09:44:02.485Z,3.61
2019-01-14T09:45:01.712Z,3.76
2019-01-14T09:46:01.806Z,3.68
2019-01-14T09:47:01.553Z,3.52
2019-01-14T09:48:01.892Z,3.65
2019-01-14T09:49:01.107Z,3.59
2019-01-14T09:50:01.866Z,3.5
2019-01-14T09:51:03.451Z,3.54
2019-01-14T09:52:01.542Z,3.62
2019-01-14T09:53:01.588Z,3.56
2019-01-14T09:54:01.660Z,3.58
2019-01-14T09:55:06.118Z,3.57
2019-01-14T09:56:01.797Z,3.55
2019-01-14T09:57:01.935Z,3.52
2019-01-14T09:58:01.611Z,3.66
2019-01-14T09:59:01.944Z,3.58
2019-01-14T10:00:01.711Z,3.53
2019-01-14T10:01:07.827Z,3.47
2019-01-14T10:02:05.295Z,3.54
2019-01-14T10:03:02.071Z,3.5
2019-01-14T10:04:01.609Z,3.44
2019-01-14T10:05:01.751Z,3.52
2019-01-14T10:06:01.644Z,3.52
2019-01-14T10:07:01.553Z,3.53
2019-01-14T10:08:01.552Z,3.55
2019-01-14T10:09:01.121Z,3.57
2019-01-14T10:10:01.614Z,3.66
2019-01-14T10:11:01.653Z,3.62
2019-01-14T10:12:01.968Z,3.66
2019-01-14T10:13:01.631Z,3.7
2019-01-14T10:14:01.812Z,3.56
2019-01-14T10:15:01.812Z,3.5
2019-01-14T10:16:02.631Z,3.62
2019-01-14T10:17:02.224Z,3.6
2019-01-14T10:18:01.923Z,3.61
2019-01-14T10:19:03.314Z,3.63
2019-01-14T10:20:02.135Z,3.62
2019-01-14T10:21:01.755Z,3.62
2019-01-14T10:22:01.945Z,3.65
2019-01-14T10:23:01.563Z,3.7
2019-01-14T10:24:01.616Z,3.72
2019-01-14T10:25:01.704Z,3.75
2019-01-14T10:26:01.495Z,3.6
2019-01-14T10:27:01.461Z,3.67
2019-01-14T10:28:01.722Z,3.63
2019-01-14T10:29:01.608Z,3.64
2019-01-14T10:30:01.562Z,3.62
2019-01-14T10:31:01.846Z,3.64
2019-01-14T10:32:01.956Z,3.6
2019-01-14T10:33:01.486Z,3.55
2019-01-14T10:34:03.180Z,3.62
2019-01-14T10:35:01.737Z,3.54
2019-01-14T10:36:01.690Z,3.46
2019-01-14T10:37:01.596Z,3.54
2019-01-14T10:38:02.205Z,3.6
2019-01-14T10:39:01.880Z,3.52
2019-01-14T10:40:01.478Z,3.62
2019-01-14T10:41:01.523Z,3.45
2019-01-14T10:42:05.491Z,3.38
2019-01-14T10:43:02.597Z,3.39
2019-01-14T10:44:01.480Z,3.37
2019-01-14T10:45:01.539Z,3.41
2019-01-14T10:46:01.623Z,3.41
2019-01-14T10:47:01.631Z,3.4
2019-01-14T10:48:01.602Z,3.35
2019-01-14T10:49:01.258Z,3.4
2019-01-14T10:50:01.561Z,3.37
2019-01-14T10:51:02.014Z,3.25
2019-01-14T10:52:01.864Z,3.4
2019-01-14T10:53:01.489Z,3.4
2019-01-14T10:54:01.796Z,3.42
2019-01-14T10:55:01.558Z,3.44
2019-01-14T10:56:01.705Z,3.39
2019-01-14T10:57:01.570Z,3.45
2019-01-14T10:58:01.796Z,3.33
2019-01-14T10:59:02.020Z,3.36
2019-01-14T11:00:02.735Z,3.37
2019-01-14T11:01:01.502Z,3.37
2019-01-14T11:02:01.557Z,3.36
2019-01-14T11:03:01.923Z,3.36
2019-01-14T11:04:01.493Z,3.39
2019-01-14T11:05:01.607Z,3.35
2019-01-14T11:06:02.000Z,3.34
2019-01-14T11:07:03.405Z,3.41
2019-01-14T11:08:01.410Z,3.27
2019-01-14T11:09:06.364Z,3.23
2019-01-14T11:10:01.587Z,3.38
2019-01-14T11:11:01.505Z,3.29
2019-01-14T11:12:01.429Z,3.31
2019-01-14T11:13:01.444Z,3.33
2019-01-14T11:14:01.378Z,3.39
2019-01-14T11:15:03.513Z,3.5
2019-01-14T11:16:01.412Z,3.49
2019-01-14T11:17:02.513Z,3.56
2019-01-14T11:18:01.556Z,3.56
2019-01-14T11:19:01.545Z,3.53
2019-01-14T11:20:01.416Z,3.5
2019-01-14T11:21:01.434Z,3.43
2019-01-14T11:22:01.370Z,3.42
2019-01-14T11:23:01.428Z,3.47
2019-01-14T11:24:01.999Z,3.45
2019-01-14T11:25:02.755Z,3.42
2019-01-14T11:26:01.412Z,3.4
2019-01-14T11:27:01.374Z,3.16
2019-01-14T11:28:01.473Z,3.3
2019-01-14T11:29:01.403Z,3.36
2019-01-14T11:30:01.424Z,3.39
2019-01-14T11:31:02.477Z,3.44
2019-01-14T11:32:01.409Z,3.29
2019-01-14T11:34:01.697Z,3.36
2019-01-14T11:35:01.467Z,3.28
2019-01-14T11:36:01.335Z,3.27
2019-01-14T11:37:01.410Z,3.26
2019-01-14T11:38:01.342Z,3.19
2019-01-14T11:39:05.540Z,3.18
2019-01-14T11:40:01.932Z,3.27
2019-01-14T11:41:01.467Z,3.36
2019-01-14T11:42:01.702Z,3.35
2019-01-14T11:43:01.817Z,3.33
2019-01-14T11:44:01.654Z,3.32
2019-01-14T11:45:01.601Z,3.2
2019-01-14T11:46:01.463Z,3.25
2019-01-14T11:47:02.157Z,3.23
2019-01-14T11:48:01.688Z,3.27
2019-01-14T11:49:01.388Z,3.33
2019-01-14T11:50:01.880Z,3.37
2019-01-14T11:51:01.577Z,3.4
2019-01-14T11:52:01.883Z,3.29
2019-01-14T11:53:01.705Z,3.42
2019-01-14T11:54:01.383Z,3.21
2019-01-14T11:55:01.474Z,3.39
2019-01-14T11:56:01.421Z,2.89
2019-01-14T11:57:01.608Z,2.48
2019-01-14T11:58:01.822Z,2.54
2019-01-14T11:59:01.393Z,2.7
2019-01-14T12:00:02.153Z,2.7
2019-01-14T12:01:02.270Z,2.47
2019-01-14T12:02:03.177Z,2.17
2019-01-14T12:03:01.447Z,2.15
2019-01-14T12:04:01.360Z,2.23
2019-01-14T12:05:01.415Z,2.36
2019-01-14T12:06:01.674Z,2.4
2019-01-14T12:07:01.812Z,2.46
2019-01-14T12:08:01.467Z,2.47
2019-01-14T12:09:02.018Z,2.39
2019-01-14T12:10:01.533Z,2.53
2019-01-14T12:11:01.121Z,2.47
2019-01-14T12:12:01.654Z,2.51
2019-01-14T12:13:01.341Z,2.46
2019-01-14T12:14:01.314Z,2.45
2019-01-14T12:15:01.651Z,2.52
2019-01-14T12:16:01.884Z,2.36
2019-01-14T12:17:01.370Z,2.46
2019-01-14T12:18:01.379Z,2.47
2019-01-14T12:19:02.059Z,2.31
2019-01-14T12:20:01.477Z,2.25
2019-01-14T12:21:01.431Z,2.26
2019-01-14T12:22:01.448Z,2.27
2019-01-14T12:23:01.381Z,2.24
2019-01-14T12:24:01.539Z,2.32
2019-01-14T12:25:01.373Z,2.43
2019-01-14T12:26:01.471Z,2.32
2019-01-14T12:27:01.635Z,2.37
2019-01-14T12:28:01.405Z,2.31
2019-01-14T12:29:01.379Z,2.42
2019-01-14T12:30:01.402Z,2.47
2019-01-14T12:31:01.746Z,2.47
2019-01-14T12:32:01.331Z,2.44
2019-01-14T12:33:02.487Z,2.49
2019-01-14T12:34:01.572Z,2.44
2019-01-14T12:35:01.305Z,2.42
2019-01-14T12:36:01.374Z,2.42
2019-01-14T12:37:01.572Z,2.45
2019-01-14T12:38:01.536Z,2.52
2019-01-14T12:39:01.601Z,2.54
2019-01-14T12:40:01.720Z,2.56
2019-01-14T12:41:01.710Z,2.55
2019-01-14T12:42:01.464Z,2.55
2019-01-14T12:43:03.170Z,2.56
2019-01-14T12:44:01.635Z,2.63
2019-01-14T12:45:01.463Z,2.64
2019-01-14T12:46:01.287Z,2.63
2019-01-14T12:47:01.539Z,2.65
2019-01-14T12:48:01.339Z,2.61
2019-01-14T12:49:01.447Z,2.64
2019-01-14T12:50:01.693Z,2.74
2019-01-14T12:51:02.166Z,2.7
2019-01-14T12:52:01.496Z,2.64
2019-01-14T12:53:01.341Z,2.59
2019-01-14T12:54:01.515Z,2.66
2019-01-14T12:55:01.335Z,2.65
2019-01-14T12:56:02.132Z,2.72
2019-01-14T12:57:01.407Z,2.74
2019-01-14T12:58:01.480Z,2.71
2019-01-14T12:59:01.387Z,2.73
2019-01-14T13:00:01.368Z,2.68
2019-01-14T13:01:01.439Z,2.71
2019-01-14T13:02:01.386Z,2.63
2019-01-14T13:03:01.332Z,2.68
2019-01-14T13:04:01.438Z,2.74
2019-01-14T13:05:01.255Z,2.77
2019-01-14T13:06:01.440Z,2.73
2019-01-14T13:07:01.379Z,2.72
2019-01-14T13:08:01.449Z,2.74
2019-01-14T13:09:01.435Z,2.77
2019-01-14T13:10:01.301Z,2.73
2019-01-14T13:11:01.257Z,2.67
2019-01-14T13:12:01.611Z,2.69
2019-01-14T13:13:01.259Z,2.78
2019-01-14T13:14:01.326Z,2.76
2019-01-14T13:15:01.260Z,2.71
2019-01-14T13:16:01.220Z,2.81
2019-01-14T13:17:01.645Z,2.83
2019-01-14T13:18:05.851Z,2.69
2019-01-14T13:19:01.347Z,2.69
2019-01-14T13:20:01.461Z,2.72
2019-01-14T13:21:01.252Z,2.81
2019-01-14T13:22:01.229Z,2.8
2019-01-14T13:23:01.734Z,2.8
2019-01-14T13:24:01.702Z,2.77
2019-01-14T13:25:01.522Z,2.84